Time;durP1;ratioP1;P1;durP2;ratioP2;P2;SDS_P1;SDS_P2;PMS_P1;PMS_P2;Temp;Humidity;BMP_temperature;BMP_pressure;BME280_temperature;BME280_humidity;BME280_pressure;Samples;Min_cycle;Max_cycle;Signal;HPM_P1;HPM_P2
2023/05/18 00:00:32;;;;;;;;;;;13.00;99.90;;;;;;4825696;29;19933;-77
2023/05/18 00:03:00;;;;;;;;;;;13.00;99.90;;;;;;4816850;29;19936;-77
2023/05/18 00:05:33;;;;;;;;;;;13.00;99.90;;;;;;4800093;29;19936;-76
2023/05/18 00:08:00;;;;;;;;;;;12.90;99.90;;;;;;4826234;29;19936;-78
2023/05/18 00:10:27;;;;;;;;;;;13.00;99.90;;;;;;4800575;29;19943;-77
2023/05/18 00:12:55;;;;;;;;;;;13.00;99.90;;;;;;4779216;29;19984;-77
2023/05/18 00:15:22;;;;;;;;;;;13.20;99.90;;;;;;4830642;29;20983;-77
2023/05/18 00:17:49;;;;;;;;;;;13.10;99.90;;;;;;4830062;29;20076;-77
2023/05/18 00:20:17;;;;;;;;;;;13.00;99.90;;;;;;4799284;29;20415;-77
2023/05/18 00:22:47;;;;;;;;;;;12.90;99.90;;;;;;4815497;29;19935;-78
2023/05/18 00:25:14;;;;;;;;;;;13.00;99.90;;;;;;4800603;29;20018;-77
2023/05/18 00:27:43;;;;;;;;;;;12.90;99.90;;;;;;4813555;29;20058;-79
2023/05/18 00:30:10;;;;;;;;;;;13.00;99.90;;;;;;4818808;29;20475;-79
2023/05/18 00:32:37;;;;;;;;;;;12.90;99.90;;;;;;4818797;29;20036;-79
2023/05/18 00:35:05;;;;;;;;;;;12.90;99.90;;;;;;4803646;29;19936;-78
2023/05/18 00:37:32;;;;;;;;;;;12.80;99.90;;;;;;4821902;29;19936;-79
2023/05/18 00:39:59;;;;;;;;;;;12.80;99.90;;;;;;4819584;29;19984;-78
2023/05/18 00:42:26;;;;;;;;;;;12.90;99.90;;;;;;4788742;29;20031;-79
2023/05/18 00:44:54;;;;;;;;;;;12.90;99.90;;;;;;4816158;29;19936;-79
2023/05/18 00:47:21;;;;;;;;;;;12.90;99.90;;;;;;4787981;29;20384;-79
2023/05/18 00:49:50;;;;;;;;;;;12.90;99.90;;;;;;4794024;29;19936;-77
2023/05/18 00:52:20;;;;;;;;;;;12.90;99.90;;;;;;4787294;29;20060;-78
2023/05/18 00:54:48;;;;;;;;;;;12.90;99.90;;;;;;4803933;29;19936;-78
2023/05/18 00:57:17;;;;;;;;;;;14.00;99.90;;;;;;4818491;29;19983;-80
2023/05/18 00:59:45;;;;;;;;;;;12.10;99.90;;;;;;4817956;29;20019;-77
2023/05/18 01:02:14;;;;;;;;;;;12.90;99.90;;;;;;4787738;29;19932;-79
2023/05/18 01:04:41;;;;;;;;;;;12.80;99.90;;;;;;4817452;29;19936;-77
2023/05/18 01:07:09;;;;;;;;;;;12.90;99.90;;;;;;4816617;29;19967;-79
2023/05/18 01:09:37;;;;;;;;;;;12.80;99.90;;;;;;4788082;29;19936;-77
2023/05/18 01:12:16;;;;;;;;;;;12.80;99.90;;;;;;4800627;29;19979;-79
2023/05/18 01:14:48;;;;;;;;;;;12.80;99.90;;;;;;4819192;29;20015;-78
2023/05/18 01:17:32;;;;;;;;;;;12.80;99.90;;;;;;4788529;29;19936;-77
2023/05/18 01:20:28;;;;;;;;;;;12.80;99.90;;;;;;4802172;29;20407;-79
2023/05/18 01:23:00;;;;;;;;;;;12.80;99.90;;;;;;4752312;29;22342;-77
2023/05/18 01:25:28;;;;;;;;;;;12.70;99.90;;;;;;4803082;29;19943;-79
2023/05/18 01:27:56;;;;;;;;;;;12.70;99.90;;;;;;4802258;29;20407;-78
2023/05/18 01:30:23;;;;;;;;;;;12.80;99.90;;;;;;4801391;29;20038;-77
2023/05/18 01:32:50;;;;;;;;;;;12.70;99.90;;;;;;4786470;29;20087;-77
2023/05/18 01:35:17;;;;;;;;;;;12.70;99.90;;;;;;4816847;29;19943;-78
2023/05/18 01:37:44;;;;;;;;;;;12.70;99.90;;;;;;4801871;29;19934;-77
2023/05/18 01:40:12;;;;;;;;;;;12.60;99.90;;;;;;4786767;29;20426;-78
2023/05/18 01:42:44;;;;;;;;;;;12.70;99.90;;;;;;4814882;29;20344;-78
2023/05/18 01:45:15;;;;;;;;;;;12.70;99.90;;;;;;4801946;29;19940;-79
2023/05/18 01:47:47;;;;;;;;;;;12.70;99.90;;;;;;4786000;29;19928;-80
2023/05/18 01:50:21;;;;;;;;;;;12.60;99.90;;;;;;4803374;29;20429;-77
2023/05/18 01:53:02;;;;;;;;;;;12.60;99.90;;;;;;4801227;29;19936;-77
2023/05/18 01:55:31;;;;;;;;;;;12.50;99.90;;;;;;4802385;29;19936;-77
2023/05/18 01:57:59;;;;;;;;;;;12.50;99.90;;;;;;4815767;29;19936;-78
2023/05/18 02:00:27;;;;;;;;;;;12.50;99.90;;;;;;4802420;29;20458;-77
2023/05/18 02:02:54;;;;;;;;;;;12.60;99.90;;;;;;4801641;29;20002;-76
2023/05/18 02:05:22;;;;;;;;;;;12.60;99.90;;;;;;4826030;29;20031;-78
2023/05/18 02:07:49;;;;;;;;;;;12.60;99.90;;;;;;4785237;29;19943;-77
2023/05/18 02:10:17;;;;;;;;;;;12.60;99.90;;;;;;4809012;29;19932;-76
2023/05/18 02:12:47;;;;;;;;;;;12.70;99.90;;;;;;4826506;29;19928;-76
2023/05/18 02:15:15;;;;;;;;;;;12.70;99.90;;;;;;4817334;29;20074;-78
2023/05/18 02:17:42;;;;;;;;;;;12.90;99.90;;;;;;4799388;29;20303;-76
2023/05/18 02:20:11;;;;;;;;;;;12.60;99.90;;;;;;4816593;29;19937;-76
2023/05/18 02:22:38;;;;;;;;;;;12.60;99.90;;;;;;4800658;29;20657;-79
2023/05/18 02:25:06;;;;;;;;;;;12.80;99.90;;;;;;4787270;29;19950;-76
2023/05/18 02:27:34;;;;;;;;;;;12.60;99.90;;;;;;4813477;29;19959;-79
2023/05/18 02:30:07;;;;;;;;;;;12.40;99.90;;;;;;4792568;29;20821;-76
2023/05/18 02:32:37;;;;;;;;;;;12.40;99.90;;;;;;4807517;29;19936;-78
2023/05/18 02:35:05;;;;;;;;;;;12.40;99.90;;;;;;4812287;29;20076;-76
2023/05/18 02:37:42;;;;;;;;;;;12.40;99.90;;;;;;4785547;29;20059;-77
2023/05/18 02:40:11;;;;;;;;;;;12.50;99.90;;;;;;4792361;29;19936;-77
2023/05/18 02:42:39;;;;;;;;;;;12.40;99.90;;;;;;4802237;29;22450;-77
2023/05/18 02:45:07;;;;;;;;;;;12.50;99.90;;;;;;4802527;29;20039;-77
2023/05/18 02:47:34;;;;;;;;;;;12.60;99.90;;;;;;4815114;29;20692;-78
2023/05/18 02:50:02;;;;;;;;;;;12.40;99.90;;;;;;4814791;29;19993;-77
2023/05/18 02:52:32;;;;;;;;;;;12.40;99.90;;;;;;4802382;29;20491;-79
2023/05/18 02:55:08;;;;;;;;;;;12.30;99.90;;;;;;4807526;29;19936;-79
2023/05/18 02:57:55;;;;;;;;;;;12.30;99.90;;;;;;4799718;29;20285;-77
2023/05/18 03:00:36;;;;;;;;;;;13.10;99.90;;;;;;4816139;29;19936;-77
2023/05/18 03:03:03;;;;;;;;;;;12.60;99.90;;;;;;4818891;29;19936;-78
2023/05/18 03:05:31;;;;;;;;;;;12.40;99.90;;;;;;4800367;29;20075;-78
2023/05/18 03:08:01;;;;;;;;;;;12.40;99.90;;;;;;4800505;29;19936;-78
2023/05/18 03:10:30;;;;;;;;;;;12.80;99.90;;;;;;4812434;29;19976;-79
2023/05/18 03:12:57;;;;;;;;;;;12.30;99.90;;;;;;4818826;29;20074;-77
2023/05/18 03:15:25;;;;;;;;;;;12.30;99.90;;;;;;4802274;29;20174;-78
2023/05/18 03:17:53;;;;;;;;;;;12.30;99.90;;;;;;4800440;29;19943;-78
2023/05/18 03:20:21;;;;;;;;;;;12.20;99.90;;;;;;4808546;29;19942;-79
2023/05/18 03:22:49;;;;;;;;;;;12.20;99.90;;;;;;4777546;29;20039;-78
2023/05/18 03:25:21;;;;;;;;;;;11.70;99.90;;;;;;4806359;29;19951;-80
2023/05/18 03:27:48;;;;;;;;;;;12.10;99.90;;;;;;4786678;29;19943;-79
2023/05/18 03:30:19;;;;;;;;;;;12.10;99.90;;;;;;4803679;29;20058;-80
2023/05/18 03:32:46;;;;;;;;;;;12.10;99.90;;;;;;4803389;29;20021;-79
2023/05/18 03:35:15;;;;;;;;;;;12.70;99.90;;;;;;4787788;29;19928;-79
2023/05/18 03:37:42;;;;;;;;;;;12.10;99.90;;;;;;4817739;29;19928;-80
2023/05/18 03:40:12;;;;;;;;;;;12.00;99.90;;;;;;4801284;29;19943;-78
2023/05/18 03:42:41;;;;;;;;;;;12.10;99.90;;;;;;4785784;29;20060;-78
2023/05/18 03:45:09;;;;;;;;;;;11.80;99.90;;;;;;4792140;29;19943;-78
2023/05/18 03:47:37;;;;;;;;;;;12.10;99.90;;;;;;4817913;29;19936;-78
2023/05/18 03:50:05;;;;;;;;;;;12.00;99.90;;;;;;4821867;29;20805;-80
2023/05/18 03:52:34;;;;;;;;;;;12.00;99.90;;;;;;4804513;29;19961;-77
2023/05/18 03:55:01;;;;;;;;;;;11.70;99.90;;;;;;4824121;29;19936;-78
2023/05/18 03:57:30;;;;;;;;;;;12.00;99.90;;;;;;4800428;29;22272;-77
2023/05/18 03:59:59;;;;;;;;;;;12.10;99.90;;;;;;4795677;29;20126;-79
2023/05/18 04:02:28;;;;;;;;;;;12.10;99.90;;;;;;4776755;29;20439;-78
2023/05/18 04:04:56;;;;;;;;;;;12.10;99.90;;;;;;4818395;29;19942;-78
2023/05/18 04:07:26;;;;;;;;;;;12.20;99.90;;;;;;4810647;29;20956;-79
2023/05/18 04:09:54;;;;;;;;;;;11.70;99.90;;;;;;4827389;29;20381;-79
2023/05/18 04:12:22;;;;;;;;;;;11.90;99.90;;;;;;4797653;29;19942;-80
2023/05/18 04:14:49;;;;;;;;;;;12.50;99.90;;;;;;4811304;29;19936;-78
2023/05/18 04:17:20;;;;;;;;;;;12.10;99.90;;;;;;4811432;29;19972;-78
2023/05/18 04:19:49;;;;;;;;;;;12.10;99.90;;;;;;4789860;29;20559;-79
2023/05/18 04:22:20;;;;;;;;;;;12.00;99.90;;;;;;4803432;29;19947;-78
2023/05/18 04:24:49;;;;;;;;;;;12.00;99.90;;;;;;4819860;29;19936;-79
2023/05/18 04:27:17;;;;;;;;;;;12.10;99.90;;;;;;4794751;29;19932;-79
2023/05/18 04:29:46;;;;;;;;;;;11.00;99.90;;;;;;4821474;29;19939;-79
2023/05/18 04:32:13;;;;;;;;;;;12.20;99.90;;;;;;4792963;29;19928;-78
2023/05/18 04:34:41;;;;;;;;;;;11.90;99.90;;;;;;4803131;29;20469;-78
2023/05/18 04:37:09;;;;;;;;;;;12.00;99.90;;;;;;4803857;29;20074;-78
2023/05/18 04:39:38;;;;;;;;;;;11.90;99.90;;;;;;4790486;29;19936;-78
2023/05/18 04:42:09;;;;;;;;;;;12.00;99.90;;;;;;4800816;29;20471;-77
2023/05/18 04:44:37;;;;;;;;;;;12.00;99.90;;;;;;4786104;29;20279;-77
2023/05/18 04:47:07;;;;;;;;;;;12.00;99.90;;;;;;4816362;29;20681;-78
2023/05/18 04:49:35;;;;;;;;;;;12.20;99.90;;;;;;4791730;29;22375;-78
2023/05/18 04:52:05;;;;;;;;;;;12.00;99.90;;;;;;4828247;29;19940;-77
2023/05/18 04:54:33;;;;;;;;;;;12.10;99.90;;;;;;4806616;29;20324;-79
2023/05/18 04:57:02;;;;;;;;;;;12.00;99.90;;;;;;4802148;29;19936;-79
2023/05/18 04:59:30;;;;;;;;;;;11.90;99.90;;;;;;4803555;29;19943;-78
2023/05/18 05:02:00;;;;;;;;;;;12.00;99.90;;;;;;4795770;29;20280;-77
2023/05/18 05:04:27;;;;;;;;;;;11.90;99.90;;;;;;4800820;29;19943;-79
2023/05/18 05:06:55;;;;;;;;;;;11.90;99.90;;;;;;4785372;29;19983;-78
2023/05/18 05:09:22;;;;;;;;;;;11.70;99.90;;;;;;4799780;29;19943;-77
2023/05/18 05:11:54;;;;;;;;;;;11.70;99.90;;;;;;4785579;29;19936;-80
2023/05/18 05:14:22;;;;;;;;;;;11.80;99.90;;;;;;4791778;29;20065;-79
2023/05/18 05:16:49;;;;;;;;;;;11.80;99.90;;;;;;4796791;29;20013;-79
2023/05/18 05:19:17;;;;;;;;;;;11.80;99.90;;;;;;4816453;29;19987;-77
2023/05/18 05:21:44;;;;;;;;;;;11.90;99.90;;;;;;4800808;29;19983;-77
2023/05/18 05:24:11;;;;;;;;;;;11.90;99.90;;;;;;4817287;29;19944;-77
2023/05/18 05:26:38;;;;;;;;;;;11.90;99.90;;;;;;4788234;29;20026;-78
2023/05/18 05:29:08;;;;;;;;;;;11.90;99.90;;;;;;4804354;29;19943;-80
2023/05/18 05:31:35;;;;;;;;;;;11.80;99.90;;;;;;4817327;29;19960;-77
2023/05/18 05:34:02;;;;;;;;;;;12.00;99.90;;;;;;4812062;29;20560;-77
2023/05/18 05:36:30;;;;;;;;;;;12.00;99.90;;;;;;4830908;29;20023;-77
2023/05/18 05:38:58;;;;;;;;;;;12.10;99.90;;;;;;4797992;29;19943;-79
2023/05/18 05:41:25;;;;;;;;;;;11.80;99.90;;;;;;4825259;29;19928;-77
2023/05/18 05:43:52;;;;;;;;;;;12.10;99.90;;;;;;4819441;29;19943;-77
2023/05/18 05:46:19;;;;;;;;;;;12.20;99.90;;;;;;4786189;29;19936;-78
2023/05/18 05:48:47;;;;;;;;;;;12.10;99.90;;;;;;4818859;29;20415;-77
2023/05/18 05:51:14;;;;;;;;;;;12.10;99.90;;;;;;4787260;29;19928;-78
2023/05/18 05:53:42;;;;;;;;;;;12.10;99.90;;;;;;4793925;29;19958;-78
2023/05/18 05:56:09;;;;;;;;;;;12.10;99.90;;;;;;4816599;29;20150;-78
2023/05/18 05:58:41;;;;;;;;;;;12.10;99.90;;;;;;4818471;29;20085;-78
2023/05/18 06:01:08;;;;;;;;;;;12.10;99.90;;;;;;4817732;29;20421;-79
2023/05/18 06:03:36;;;;;;;;;;;12.10;99.90;;;;;;4810899;29;19943;-78
2023/05/18 06:06:05;;;;;;;;;;;12.10;99.90;;;;;;4815302;29;19943;-78
2023/05/18 06:08:32;;;;;;;;;;;12.20;99.90;;;;;;4785534;29;19940;-80
2023/05/18 06:10:59;;;;;;;;;;;12.10;99.90;;;;;;4787803;29;20016;-80
2023/05/18 06:13:27;;;;;;;;;;;12.20;99.90;;;;;;4805758;29;20075;-77
2023/05/18 06:15:58;;;;;;;;;;;12.20;99.90;;;;;;4793234;29;19991;-78
2023/05/18 06:18:25;;;;;;;;;;;12.20;99.90;;;;;;4803526;29;20853;-77
2023/05/18 06:20:57;;;;;;;;;;;12.20;99.90;;;;;;4800523;29;19936;-76
2023/05/18 06:23:25;;;;;;;;;;;12.20;99.90;;;;;;4815433;29;20597;-78
2023/05/18 06:25:55;;;;;;;;;;;12.20;99.90;;;;;;4816293;29;19936;-77
2023/05/18 06:28:31;;;;;;;;;;;12.30;99.90;;;;;;4815046;29;19936;-79
2023/05/18 06:31:28;;;;;;;;;;;12.30;99.90;;;;;;4806858;29;19936;-78
2023/05/18 06:34:07;;;;;;;;;;;12.30;99.90;;;;;;4817972;29;19936;-79
2023/05/18 06:36:35;;;;;;;;;;;12.30;99.90;;;;;;4816631;29;20363;-78
2023/05/18 06:39:03;;;;;;;;;;;12.30;99.90;;;;;;4803121;29;19933;-80
2023/05/18 06:41:32;;;;;;;;;;;12.20;99.90;;;;;;4808155;29;19932;-79
2023/05/18 06:44:00;;;;;;;;;;;12.30;99.90;;;;;;4815878;29;19936;-78
2023/05/18 06:46:33;;;;;;;;;;;12.40;99.90;;;;;;4815785;29;19962;-76
2023/05/18 06:49:03;;;;;;;;;;;12.30;99.90;;;;;;4801467;29;20656;-79
2023/05/18 06:51:30;;;;;;;;;;;12.40;99.90;;;;;;4791506;29;19988;-77
2023/05/18 06:53:58;;;;;;;;;;;12.30;99.90;;;;;;4814831;29;19943;-76
2023/05/18 06:56:25;;;;;;;;;;;12.30;99.90;;;;;;4801138;29;19943;-77
2023/05/18 06:58:54;;;;;;;;;;;12.40;99.90;;;;;;4783683;29;20603;-77
2023/05/18 07:01:21;;;;;;;;;;;12.40;99.90;;;;;;4816477;29;19943;-76
2023/05/18 07:03:49;;;;;;;;;;;12.30;99.90;;;;;;4793871;29;19936;-78
2023/05/18 07:06:16;;;;;;;;;;;12.10;99.90;;;;;;4809079;29;20587;-76
2023/05/18 07:08:44;;;;;;;;;;;12.20;99.90;;;;;;4792352;29;19928;-79
2023/05/18 07:11:14;;;;;;;;;;;12.40;99.90;;;;;;4802570;29;19936;-77
2023/05/18 07:13:41;;;;;;;;;;;11.80;99.90;;;;;;4784123;29;19943;-76
2023/05/18 07:16:09;;;;;;;;;;;12.50;99.90;;;;;;4818045;29;20138;-77
2023/05/18 07:18:40;;;;;;;;;;;12.50;99.90;;;;;;4801568;29;19940;-78
2023/05/18 07:21:08;;;;;;;;;;;11.70;99.90;;;;;;4816945;29;19928;-76
2023/05/18 07:23:35;;;;;;;;;;;12.60;99.90;;;;;;4808061;29;19936;-77
2023/05/18 07:26:03;;;;;;;;;;;12.40;99.90;;;;;;4828977;29;19943;-77
2023/05/18 07:28:30;;;;;;;;;;;12.40;99.90;;;;;;4796622;29;20698;-76
2023/05/18 07:30:58;;;;;;;;;;;12.50;99.90;;;;;;4799364;29;20412;-77
2023/05/18 07:33:25;;;;;;;;;;;12.30;99.90;;;;;;4782798;29;19936;-76
2023/05/18 07:35:52;;;;;;;;;;;12.50;99.90;;;;;;4782513;29;19936;-78
2023/05/18 07:38:20;;;;;;;;;;;12.50;99.90;;;;;;4800267;29;19999;-76
2023/05/18 07:40:47;;;;;;;;;;;12.50;99.90;;;;;;4817333;29;19959;-76
2023/05/18 07:43:14;;;;;;;;;;;12.60;99.90;;;;;;4815279;29;20026;-76
2023/05/18 07:45:41;;;;;;;;;;;12.60;99.90;;;;;;4814744;29;20435;-77
2023/05/18 07:48:08;;;;;;;;;;;12.60;99.90;;;;;;4815786;29;20708;-76
2023/05/18 07:50:35;;;;;;;;;;;12.70;99.90;;;;;;4799017;29;20339;-76
2023/05/18 07:53:02;;;;;;;;;;;12.80;99.90;;;;;;4796486;29;20702;-76
2023/05/18 07:55:30;;;;;;;;;;;12.70;99.90;;;;;;4812632;29;19936;-76
2023/05/18 07:57:59;;;;;;;;;;;12.80;99.90;;;;;;4798051;29;19936;-77
2023/05/18 08:00:27;;;;;;;;;;;12.70;99.90;;;;;;4799050;29;19936;-77
2023/05/18 08:02:54;;;;;;;;;;;12.60;99.90;;;;;;4785514;29;19936;-77
2023/05/18 08:05:22;;;;;;;;;;;12.70;99.90;;;;;;4783932;29;20085;-77
2023/05/18 08:07:50;;;;;;;;;;;12.70;99.90;;;;;;4802022;29;19936;-78
2023/05/18 08:10:17;;;;;;;;;;;12.90;99.90;;;;;;4798953;29;20480;-79
2023/05/18 08:12:44;;;;;;;;;;;12.80;99.90;;;;;;4816842;29;19985;-78
2023/05/18 08:15:12;;;;;;;;;;;13.10;99.90;;;;;;4813015;29;19937;-77
2023/05/18 08:17:39;;;;;;;;;;;12.90;99.90;;;;;;4800048;29;20098;-78
2023/05/18 08:20:07;;;;;;;;;;;13.00;99.90;;;;;;4792482;29;19936;-77
2023/05/18 08:22:35;;;;;;;;;;;13.00;99.90;;;;;;4799839;29;20643;-76
2023/05/18 08:25:03;;;;;;;;;;;13.30;99.90;;;;;;4791003;29;20096;-76
2023/05/18 08:27:30;;;;;;;;;;;12.80;99.90;;;;;;4819895;29;19936;-77
2023/05/18 08:29:57;;;;;;;;;;;12.80;99.90;;;;;;4787545;29;20026;-77
2023/05/18 08:32:27;;;;;;;;;;;12.80;99.90;;;;;;4832352;29;19936;-77
2023/05/18 08:34:54;;;;;;;;;;;12.50;99.90;;;;;;4815257;29;20303;-78
2023/05/18 08:37:27;;;;;;;;;;;12.90;99.90;;;;;;4804728;29;19944;-78
2023/05/18 08:39:55;;;;;;;;;;;13.20;99.90;;;;;;4800002;29;20015;-76
2023/05/18 08:42:27;;;;;;;;;;;13.10;99.90;;;;;;4825060;29;19936;-78
2023/05/18 08:45:22;;;;;;;;;;;13.20;99.90;;;;;;4802993;29;19936;-77
2023/05/18 08:47:51;;;;;;;;;;;13.50;99.90;;;;;;4818810;29;20685;-76
2023/05/18 08:50:19;;;;;;;;;;;13.60;99.90;;;;;;4785941;29;19991;-77
2023/05/18 08:52:53;;;;;;;;;;;13.20;99.90;;;;;;4820244;29;19968;-78
2023/05/18 08:55:21;;;;;;;;;;;13.20;99.90;;;;;;4801078;29;19943;-77
2023/05/18 08:57:54;;;;;;;;;;;13.10;99.90;;;;;;4794691;29;19959;-79
2023/05/18 09:00:22;;;;;;;;;;;13.30;99.90;;;;;;4786750;29;20420;-77
2023/05/18 09:02:50;;;;;;;;;;;13.00;99.90;;;;;;4818735;29;19936;-78
2023/05/18 09:05:19;;;;;;;;;;;13.00;99.90;;;;;;4802299;29;19943;-78
2023/05/18 09:07:48;;;;;;;;;;;13.00;99.90;;;;;;4801839;29;19971;-79
2023/05/18 09:10:16;;;;;;;;;;;13.20;99.90;;;;;;4816258;29;19935;-77
2023/05/18 09:12:45;;;;;;;;;;;13.00;99.90;;;;;;4805505;29;20304;-77
2023/05/18 09:15:15;;;;;;;;;;;13.30;99.90;;;;;;4804396;29;19995;-76
2023/05/18 09:17:42;;;;;;;;;;;13.30;99.90;;;;;;4818663;29;20588;-77
2023/05/18 09:20:11;;;;;;;;;;;13.40;99.90;;;;;;4826516;29;19936;-77
2023/05/18 09:22:39;;;;;;;;;;;12.50;99.90;;;;;;4830872;29;19936;-78
2023/05/18 09:25:07;;;;;;;;;;;13.60;99.90;;;;;;4817942;29;19932;-79
2023/05/18 09:27:35;;;;;;;;;;;13.70;99.90;;;;;;4789576;29;19936;-79
2023/05/18 09:30:03;;;;;;;;;;;13.70;99.90;;;;;;4803501;29;19943;-79
2023/05/18 09:32:35;;;;;;;;;;;13.70;99.90;;;;;;4803244;29;19979;-78
2023/05/18 09:35:03;;;;;;;;;;;13.80;99.90;;;;;;4801526;29;20739;-76
2023/05/18 09:37:31;;;;;;;;;;;13.80;99.90;;;;;;4802605;29;19936;-79
2023/05/18 09:40:06;;;;;;;;;;;13.70;99.90;;;;;;4803327;29;20329;-79
2023/05/18 09:42:38;;;;;;;;;;;13.80;99.90;;;;;;4823270;29;19936;-79
2023/05/18 09:45:25;;;;;;;;;;;13.80;99.90;;;;;;4794451;29;19947;-79
2023/05/18 09:47:53;;;;;;;;;;;13.80;99.90;;;;;;4817948;29;19936;-78
2023/05/18 09:50:21;;;;;;;;;;;13.90;99.90;;;;;;4820127;29;19938;-79
2023/05/18 09:52:49;;;;;;;;;;;13.80;99.90;;;;;;4804897;29;20713;-78
2023/05/18 09:55:19;;;;;;;;;;;13.80;99.90;;;;;;4801037;29;20720;-80
2023/05/18 09:57:47;;;;;;;;;;;13.80;99.90;;;;;;4779616;29;20464;-79
2023/05/18 10:00:15;;;;;;;;;;;13.80;99.90;;;;;;4798176;29;19936;-76
2023/05/18 10:02:47;;;;;;;;;;;13.80;99.90;;;;;;4801770;29;20380;-77
2023/05/18 10:05:22;;;;;;;;;;;13.90;99.90;;;;;;4805244;29;19937;-78
2023/05/18 10:07:49;;;;;;;;;;;13.80;99.90;;;;;;4779772;29;20319;-79
2023/05/18 10:10:20;;;;;;;;;;;13.90;99.90;;;;;;4788591;29;20423;-77
2023/05/18 10:12:51;;;;;;;;;;;13.90;99.90;;;;;;4775876;29;19944;-78
2023/05/18 10:15:19;;;;;;;;;;;13.90;99.90;;;;;;4767366;29;19936;-79
2023/05/18 10:17:47;;;;;;;;;;;14.00;99.90;;;;;;4777318;29;19933;-79
2023/05/18 10:20:18;;;;;;;;;;;14.10;99.90;;;;;;4752223;29;19963;-79
2023/05/18 10:22:47;;;;;;;;;;;14.10;99.90;;;;;;4784857;29;20069;-80
2023/05/18 10:25:18;;;;;;;;;;;14.10;99.90;;;;;;4764191;29;20019;-79
2023/05/18 10:27:46;;;;;;;;;;;14.00;99.90;;;;;;4762753;29;20373;-79
2023/05/18 10:30:15;;;;;;;;;;;14.00;99.90;;;;;;4758784;29;19933;-79
2023/05/18 10:32:42;;;;;;;;;;;14.00;99.90;;;;;;4751251;29;19937;-78
2023/05/18 10:35:10;;;;;;;;;;;14.00;99.90;;;;;;4761093;29;19944;-80
2023/05/18 10:37:40;;;;;;;;;;;14.40;99.90;;;;;;4777960;29;19936;-80
2023/05/18 10:40:08;;;;;;;;;;;14.30;99.90;;;;;;4762010;29;19937;-80
2023/05/18 10:42:37;;;;;;;;;;;14.10;99.90;;;;;;4793715;29;19994;-79
2023/05/18 10:45:05;;;;;;;;;;;14.10;99.90;;;;;;4787834;29;19937;-80
2023/05/18 10:47:34;;;;;;;;;;;14.10;99.90;;;;;;4798213;29;19936;-79
2023/05/18 10:50:03;;;;;;;;;;;14.10;99.90;;;;;;4786326;29;19984;-78
2023/05/18 10:52:31;;;;;;;;;;;14.10;99.90;;;;;;4800665;29;19936;-78
2023/05/18 10:55:03;;;;;;;;;;;14.10;99.90;;;;;;4788030;29;20188;-80
2023/05/18 10:57:51;;;;;;;;;;;13.90;99.90;;;;;;4774105;29;19944;-79
2023/05/18 11:00:19;;;;;;;;;;;13.40;99.90;;;;;;4785098;29;19937;-79
2023/05/18 11:02:48;;;;;;;;;;;14.80;99.90;;;;;;4791988;29;19956;-79
2023/05/18 11:05:22;;;;;;;;;;;14.10;99.90;;;;;;4783311;29;19999;-79
2023/05/18 11:07:49;;;;;;;;;;;14.10;99.90;;;;;;4768489;29;19929;-79
2023/05/18 11:10:17;;;;;;;;;;;14.20;99.90;;;;;;4794672;29;19935;-80
2023/05/18 11:12:44;;;;;;;;;;;14.10;99.90;;;;;;4787026;29;19932;-80
2023/05/18 11:15:11;;;;;;;;;;;14.10;99.90;;;;;;4778070;29;19943;-79
2023/05/18 11:17:38;;;;;;;;;;;14.40;99.90;;;;;;4794851;29;19936;-79
2023/05/18 11:22:41;;;;;;;;;;;14.20;99.90;;;;;;4805433;29;19944;-80
2023/05/18 11:25:08;;;;;;;;;;;13.80;99.90;;;;;;4816714;29;19971;-79
2023/05/18 11:27:37;;;;;;;;;;;14.10;99.90;;;;;;4818972;29;20459;-79
2023/05/18 11:30:24;;;;;;;;;;;14.20;99.90;;;;;;4816396;29;20512;-78
2023/05/18 11:32:51;;;;;;;;;;;14.20;99.90;;;;;;4809113;29;19935;-80
2023/05/18 11:35:22;;;;;;;;;;;14.20;99.90;;;;;;4785242;29;20035;-78
2023/05/18 11:37:50;;;;;;;;;;;13.60;99.90;;;;;;4800241;29;19940;-79
2023/05/18 11:40:36;;;;;;;;;;;14.00;99.90;;;;;;4815765;29;19984;-77
2023/05/18 11:43:03;;;;;;;;;;;14.40;99.90;;;;;;4793680;29;19968;-79
2023/05/18 11:45:32;;;;;;;;;;;14.40;99.90;;;;;;4797129;29;20019;-78
2023/05/18 11:48:01;;;;;;;;;;;14.60;99.90;;;;;;4817448;29;22309;-78
2023/05/18 11:50:29;;;;;;;;;;;14.40;99.90;;;;;;4830654;29;19936;-79
2023/05/18 11:52:58;;;;;;;;;;;14.50;99.90;;;;;;4816515;29;19936;-78
2023/05/18 11:55:36;;;;;;;;;;;14.50;99.90;;;;;;4786597;29;19937;-80
2023/05/18 11:58:06;;;;;;;;;;;15.00;99.90;;;;;;4828075;29;20448;-78
2023/05/18 12:00:34;;;;;;;;;;;14.60;99.90;;;;;;4816648;29;19960;-79
2023/05/18 12:03:02;;;;;;;;;;;14.50;99.90;;;;;;4780196;29;20027;-77
2023/05/18 12:05:31;;;;;;;;;;;14.60;99.90;;;;;;4778298;29;20487;-79
2023/05/18 12:07:58;;;;;;;;;;;14.60;99.90;;;;;;4801925;29;20592;-80
2023/05/18 12:10:26;;;;;;;;;;;14.70;99.90;;;;;;4810518;29;19964;-80
2023/05/18 12:12:53;;;;;;;;;;;14.70;99.90;;;;;;4784979;29;20446;-77
2023/05/18 12:15:22;;;;;;;;;;;14.80;99.90;;;;;;4815095;29;19983;-78
2023/05/18 12:17:49;;;;;;;;;;;14.10;99.90;;;;;;4815374;29;20020;-78
2023/05/18 12:20:18;;;;;;;;;;;14.40;99.90;;;;;;4799526;29;19932;-78
2023/05/18 12:22:51;;;;;;;;;;;14.60;99.90;;;;;;4816126;29;20321;-79
2023/05/18 12:25:20;;;;;;;;;;;14.70;99.90;;;;;;4832783;29;19965;-79
2023/05/18 12:27:47;;;;;;;;;;;14.70;99.90;;;;;;4821839;29;19928;-79
2023/05/18 12:30:14;;;;;;;;;;;14.60;99.90;;;;;;4819816;29;19951;-80
2023/05/18 12:32:46;;;;;;;;;;;14.70;99.90;;;;;;4790140;29;19943;-79
2023/05/18 12:35:14;;;;;;;;;;;14.70;99.90;;;;;;4806689;29;19975;-80
2023/05/18 12:37:42;;;;;;;;;;;14.90;99.90;;;;;;4794021;29;19943;-79
2023/05/18 12:40:15;;;;;;;;;;;14.70;99.90;;;;;;4801996;29;19936;-77
2023/05/18 12:42:52;;;;;;;;;;;14.60;99.90;;;;;;4808532;29;20462;-79
2023/05/18 12:45:21;;;;;;;;;;;14.70;99.90;;;;;;4788231;29;19940;-79
2023/05/18 12:47:53;;;;;;;;;;;14.70;99.90;;;;;;4789963;29;22290;-78
2023/05/18 12:50:21;;;;;;;;;;;14.60;99.90;;;;;;4818379;29;20408;-78
2023/05/18 12:52:49;;;;;;;;;;;14.60;99.90;;;;;;4805235;29;19936;-79
2023/05/18 12:55:20;;;;;;;;;;;14.60;99.90;;;;;;4803604;29;19928;-79
2023/05/18 12:57:59;;;;;;;;;;;14.60;99.90;;;;;;4828614;29;19976;-79
2023/05/18 13:00:26;;;;;;;;;;;14.70;99.90;;;;;;4818339;29;20608;-79
2023/05/18 13:03:03;;;;;;;;;;;14.70;99.90;;;;;;4798870;29;19939;-79
2023/05/18 13:05:31;;;;;;;;;;;14.70;99.90;;;;;;4812265;29;19942;-79
2023/05/18 13:07:58;;;;;;;;;;;14.70;99.90;;;;;;4834774;29;20376;-79
2023/05/18 13:10:28;;;;;;;;;;;14.80;99.90;;;;;;4816361;29;19978;-78
2023/05/18 13:13:02;;;;;;;;;;;14.70;99.90;;;;;;4817407;29;19968;-79
2023/05/18 13:15:35;;;;;;;;;;;14.70;99.90;;;;;;4782606;29;20510;-78
2023/05/18 13:18:05;;;;;;;;;;;14.70;99.90;;;;;;4803630;29;19936;-79
2023/05/18 13:20:34;;;;;;;;;;;14.80;99.90;;;;;;4801226;29;19943;-77
2023/05/18 13:23:05;;;;;;;;;;;14.80;99.90;;;;;;4800864;29;19943;-78
2023/05/18 13:25:33;;;;;;;;;;;14.80;99.90;;;;;;4818806;29;19936;-78
2023/05/18 13:28:00;;;;;;;;;;;14.80;99.90;;;;;;4798736;29;22201;-79
2023/05/18 13:30:28;;;;;;;;;;;14.80;99.90;;;;;;4803862;29;19943;-79
2023/05/18 13:32:56;;;;;;;;;;;14.80;99.90;;;;;;4803409;29;19943;-78
2023/05/18 13:35:23;;;;;;;;;;;14.80;99.90;;;;;;4788483;29;20418;-78
2023/05/18 13:37:50;;;;;;;;;;;14.70;99.90;;;;;;4817308;29;20629;-77
2023/05/18 13:40:19;;;;;;;;;;;14.70;99.90;;;;;;4800741;29;19936;-79
2023/05/18 13:42:46;;;;;;;;;;;14.80;99.90;;;;;;4818402;29;19928;-78
2023/05/18 13:45:13;;;;;;;;;;;14.80;99.90;;;;;;4829160;29;20066;-79
2023/05/18 13:47:44;;;;;;;;;;;15.10;99.90;;;;;;4811047;29;19998;-79
2023/05/18 13:50:11;;;;;;;;;;;15.10;99.90;;;;;;4802707;29;20007;-78
2023/05/18 13:52:40;;;;;;;;;;;15.10;99.90;;;;;;4802152;29;19936;-78
2023/05/18 13:55:07;;;;;;;;;;;15.10;99.90;;;;;;4794236;29;22624;-79
2023/05/18 13:57:37;;;;;;;;;;;15.00;99.90;;;;;;4825610;29;20344;-78
2023/05/18 14:00:13;;;;;;;;;;;15.00;99.90;;;;;;4801816;29;19943;-78
2023/05/18 14:02:40;;;;;;;;;;;14.90;99.90;;;;;;4829030;29;19936;-77
2023/05/18 14:05:08;;;;;;;;;;;14.90;99.90;;;;;;4818232;29;20652;-79
2023/05/18 14:07:36;;;;;;;;;;;14.90;99.90;;;;;;4817056;29;19960;-78
2023/05/18 14:10:04;;;;;;;;;;;14.90;99.90;;;;;;4786299;29;19949;-77
2023/05/18 14:12:31;;;;;;;;;;;14.90;99.90;;;;;;4801273;29;22595;-79
2023/05/18 14:14:59;;;;;;;;;;;14.80;99.90;;;;;;4792803;29;19979;-79
2023/05/18 14:17:28;;;;;;;;;;;15.00;99.90;;;;;;4781701;29;20068;-79
2023/05/18 14:19:56;;;;;;;;;;;14.90;99.90;;;;;;4801471;29;20672;-78
2023/05/18 14:22:24;;;;;;;;;;;14.80;99.90;;;;;;4798975;29;20853;-79
2023/05/18 14:24:52;;;;;;;;;;;15.00;99.90;;;;;;4830850;29;19975;-78
2023/05/18 14:27:20;;;;;;;;;;;14.80;99.90;;;;;;4825190;29;20354;-78
2023/05/18 14:29:47;;;;;;;;;;;15.80;99.90;;;;;;4815430;29;19928;-78